Red Deer Regional Airport
CYQF : rendu visible

Aérodrome :











RETROUVEZ-NOUS SUR...

 
LOGIN :

S'inscrire | Disclaimer

   EN    FR    IT 

 









Légende :    VFR   VFR Marginal   IFR   IFR Intensif   IFR Très Intensif
Visi : 
Plafond : 
>= 8 km
>= 3000ft
5 à 8 km
1000 à 3000 ft
1500m à 5 km
500 à 1000 ft
800 à 1500m
200 à 500 ft
< 800m
< 200 ft
Symboles :   Orages  Brouillard  Fortes neiges  Fortes précipitations  Vent > 20 kt






- Altitude de l'aérodrome : 2968 ft
- Code IATA : YQF


CYQF - Red Deer Regional

DERNIER METAR :
  • 090800Z AUTO 12002KT 1/2SM FG CLR 09/09 A2995 RMK SLP158

METARs EXPIRÉS :
  • 090756Z AUTO 00000KT 3/4SM BR FEW025 09/08 A2995 RMK SLP158
  • 090742Z AUTO VRB02KT 1 1/2SM BR FEW025 09/09 A2995 RMK VIS VRB 1/2-3 SLP160
  • 090700Z AUTO VRB02KT 9SM CLR 09/09 A2995 RMK SLP159
  • 090600Z AUTO 26006KT 9SM OVC120 12/11 A2994 RMK SLP151 DENSITY ALT 3200FT

TAF AMD TAF CYQF
Valide du 09 à 08h jusqu'au 09 à 18h UTC


090807Z 0908/0918 VRB03KT 1/2SM FG VV002
TEMPO 0908/0914 3SM BR FEW002
FM091400 20005KT P6SM FEW004
TEMPO 0914/0916 1SM BR SCT004
FM091600 18008KT P6SM FEW020 RMK FCST BASED ON AUTO OBS. NXT FCST BY 091200Z
FIR CZEG / Amérique du Nord



MET'MAP, la Météo Aéronautique d'un coup d'oeil ! - Copyright ORBIFLY Décembre 2007 - Disclaimer

ORBIFLY MET'MAP TEAM :

Programmation & Développement : Alexandra Zaïnal
Sur une idée originale de : Baudouin d'Aumeries
Assistance à la programmation : Marc-Olivier Méhu
Soutien technique & logistique : Manuel Goepfert

Contact : metmap@orbifly.com




SOURCES & CREDITS :

   NOAA       Earth
Advisory